sensor_id;sensor_type;location;lat;lon;timestamp;P1;durP1;ratioP1;P2;durP2;ratioP2
41217;SDS011;26950;50.960;7.138;2023-05-07T00:00:56;5.20;;;2.20;;
41217;SDS011;26950;50.960;7.138;2023-05-07T00:03:24;3.90;;;2.53;;
41217;SDS011;26950;50.960;7.138;2023-05-07T00:05:52;7.90;;;2.45;;
41217;SDS011;26950;50.960;7.138;2023-05-07T00:08:19;3.13;;;2.13;;
41217;SDS011;26950;50.960;7.138;2023-05-07T00:10:46;4.72;;;2.50;;
41217;SDS011;26950;50.960;7.138;2023-05-07T00:13:13;5.55;;;1.80;;
41217;SDS011;26950;50.960;7.138;2023-05-07T00:15:39;4.03;;;2.35;;
41217;SDS011;26950;50.960;7.138;2023-05-07T00:18:06;6.05;;;2.00;;
41217;SDS011;26950;50.960;7.138;2023-05-07T00:20:32;5.50;;;2.10;;
41217;SDS011;26950;50.960;7.138;2023-05-07T00:23:00;2.35;;;1.80;;
41217;SDS011;26950;50.960;7.138;2023-05-07T00:25:27;3.50;;;2.30;;
41217;SDS011;26950;50.960;7.138;2023-05-07T00:27:53;9.07;;;2.33;;
41217;SDS011;26950;50.960;7.138;2023-05-07T00:30:20;4.35;;;2.10;;
41217;SDS011;26950;50.960;7.138;2023-05-07T00:32:46;8.05;;;2.00;;
41217;SDS011;26950;50.960;7.138;2023-05-07T00:35:13;3.60;;;1.95;;
41217;SDS011;26950;50.960;7.138;2023-05-07T00:37:40;6.27;;;2.10;;
41217;SDS011;26950;50.960;7.138;2023-05-07T00:40:08;3.53;;;1.97;;
41217;SDS011;26950;50.960;7.138;2023-05-07T00:42:35;3.53;;;1.90;;
41217;SDS011;26950;50.960;7.138;2023-05-07T00:45:02;3.87;;;1.80;;
41217;SDS011;26950;50.960;7.138;2023-05-07T00:47:29;5.87;;;2.37;;
41217;SDS011;26950;50.960;7.138;2023-05-07T00:49:56;2.80;;;1.90;;
41217;SDS011;26950;50.960;7.138;2023-05-07T00:52:23;5.57;;;2.00;;
41217;SDS011;26950;50.960;7.138;2023-05-07T00:54:52;2.20;;;1.93;;
41217;SDS011;26950;50.960;7.138;2023-05-07T00:57:19;4.17;;;2.03;;
41217;SDS011;26950;50.960;7.138;2023-05-07T00:59:47;5.13;;;1.90;;
41217;SDS011;26950;50.960;7.138;2023-05-07T01:02:14;6.33;;;2.43;;
41217;SDS011;26950;50.960;7.138;2023-05-07T01:04:41;5.30;;;2.37;;
41217;SDS011;26950;50.960;7.138;2023-05-07T01:07:07;3.20;;;2.00;;
41217;SDS011;26950;50.960;7.138;2023-05-07T01:09:34;3.20;;;1.70;;
41217;SDS011;26950;50.960;7.138;2023-05-07T01:12:02;4.00;;;1.90;;
41217;SDS011;26950;50.960;7.138;2023-05-07T01:14:31;4.07;;;2.03;;
41217;SDS011;26950;50.960;7.138;2023-05-07T01:16:58;4.00;;;1.87;;
41217;SDS011;26950;50.960;7.138;2023-05-07T01:19:25;2.47;;;1.77;;
41217;SDS011;26950;50.960;7.138;2023-05-07T01:21:52;3.00;;;1.63;;
41217;SDS011;26950;50.960;7.138;2023-05-07T01:24:26;4.03;;;1.70;;
41217;SDS011;26950;50.960;7.138;2023-05-07T01:26:53;3.00;;;1.67;;
41217;SDS011;26950;50.960;7.138;2023-05-07T01:29:20;4.70;;;1.57;;
41217;SDS011;26950;50.960;7.138;2023-05-07T01:31:46;3.80;;;1.90;;
41217;SDS011;26950;50.960;7.138;2023-05-07T01:34:13;4.97;;;1.73;;
41217;SDS011;26950;50.960;7.138;2023-05-07T01:36:43;3.70;;;1.60;;
41217;SDS011;26950;50.960;7.138;2023-05-07T01:39:10;3.17;;;1.57;;
41217;SDS011;26950;50.960;7.138;2023-05-07T01:41:39;3.47;;;1.60;;
41217;SDS011;26950;50.960;7.138;2023-05-07T01:44:06;4.50;;;1.77;;
41217;SDS011;26950;50.960;7.138;2023-05-07T01:46:33;2.10;;;1.50;;
41217;SDS011;26950;50.960;7.138;2023-05-07T01:49:00;2.37;;;1.50;;
41217;SDS011;26950;50.960;7.138;2023-05-07T01:51:27;5.17;;;1.40;;
41217;SDS011;26950;50.960;7.138;2023-05-07T01:53:53;3.30;;;1.60;;
41217;SDS011;26950;50.960;7.138;2023-05-07T01:56:20;5.03;;;1.60;;
41217;SDS011;26950;50.960;7.138;2023-05-07T01:58:48;5.03;;;1.70;;
41217;SDS011;26950;50.960;7.138;2023-05-07T02:01:16;3.57;;;1.50;;
41217;SDS011;26950;50.960;7.138;2023-05-07T02:03:42;6.80;;;1.50;;
41217;SDS011;26950;50.960;7.138;2023-05-07T02:06:09;1.97;;;1.30;;
41217;SDS011;26950;50.960;7.138;2023-05-07T02:08:35;4.77;;;1.40;;
41217;SDS011;26950;50.960;7.138;2023-05-07T02:11:02;3.57;;;1.70;;
41217;SDS011;26950;50.960;7.138;2023-05-07T02:13:29;2.70;;;1.40;;
41217;SDS011;26950;50.960;7.138;2023-05-07T02:15:57;3.00;;;1.20;;
41217;SDS011;26950;50.960;7.138;2023-05-07T02:18:24;3.10;;;1.67;;
41217;SDS011;26950;50.960;7.138;2023-05-07T02:20:50;1.70;;;1.40;;
41217;SDS011;26950;50.960;7.138;2023-05-07T02:23:17;2.13;;;1.40;;
41217;SDS011;26950;50.960;7.138;2023-05-07T02:25:43;4.47;;;1.47;;
41217;SDS011;26950;50.960;7.138;2023-05-07T02:28:10;1.93;;;1.50;;
41217;SDS011;26950;50.960;7.138;2023-05-07T02:30:38;3.70;;;1.30;;
41217;SDS011;26950;50.960;7.138;2023-05-07T02:33:06;4.47;;;1.40;;
41217;SDS011;26950;50.960;7.138;2023-05-07T02:35:33;4.30;;;1.50;;
41217;SDS011;26950;50.960;7.138;2023-05-07T02:38:00;4.23;;;2.10;;
41217;SDS011;26950;50.960;7.138;2023-05-07T02:40:26;2.30;;;1.58;;
41217;SDS011;26950;50.960;7.138;2023-05-07T02:42:53;2.87;;;1.57;;
41217;SDS011;26950;50.960;7.138;2023-05-07T02:45:19;5.33;;;1.80;;
41217;SDS011;26950;50.960;7.138;2023-05-07T02:47:45;1.45;;;1.30;;
41217;SDS011;26950;50.960;7.138;2023-05-07T02:50:13;2.30;;;1.40;;
41217;SDS011;26950;50.960;7.138;2023-05-07T02:52:40;2.53;;;1.50;;
41217;SDS011;26950;50.960;7.138;2023-05-07T02:55:07;3.87;;;1.70;;
41217;SDS011;26950;50.960;7.138;2023-05-07T02:57:34;4.50;;;1.50;;
41217;SDS011;26950;50.960;7.138;2023-05-07T03:00:09;5.97;;;1.80;;
41217;SDS011;26950;50.960;7.138;2023-05-07T03:02:36;3.10;;;1.60;;
41217;SDS011;26950;50.960;7.138;2023-05-07T03:05:03;2.67;;;1.50;;
41217;SDS011;26950;50.960;7.138;2023-05-07T03:07:31;2.30;;;1.50;;
41217;SDS011;26950;50.960;7.138;2023-05-07T03:09:58;2.20;;;1.40;;
41217;SDS011;26950;50.960;7.138;2023-05-07T03:12:24;4.87;;;1.60;;
41217;SDS011;26950;50.960;7.138;2023-05-07T03:14:50;2.53;;;1.87;;
41217;SDS011;26950;50.960;7.138;2023-05-07T03:17:17;2.63;;;1.83;;
41217;SDS011;26950;50.960;7.138;2023-05-07T03:19:43;3.73;;;1.70;;
41217;SDS011;26950;50.960;7.138;2023-05-07T03:22:10;2.20;;;1.63;;
41217;SDS011;26950;50.960;7.138;2023-05-07T03:24:38;4.50;;;1.60;;
41217;SDS011;26950;50.960;7.138;2023-05-07T03:27:04;2.13;;;1.60;;
41217;SDS011;26950;50.960;7.138;2023-05-07T03:29:31;2.30;;;1.53;;
41217;SDS011;26950;50.960;7.138;2023-05-07T03:31:57;6.73;;;1.83;;
41217;SDS011;26950;50.960;7.138;2023-05-07T03:34:23;4.10;;;1.83;;
41217;SDS011;26950;50.960;7.138;2023-05-07T03:36:50;1.80;;;1.50;;
41217;SDS011;26950;50.960;7.138;2023-05-07T03:39:17;2.83;;;1.40;;
41217;SDS011;26950;50.960;7.138;2023-05-07T03:41:44;5.17;;;1.87;;
41217;SDS011;26950;50.960;7.138;2023-05-07T03:44:11;2.80;;;1.70;;
41217;SDS011;26950;50.960;7.138;2023-05-07T03:46:37;6.77;;;2.07;;
41217;SDS011;26950;50.960;7.138;2023-05-07T03:49:04;4.20;;;1.90;;
41217;SDS011;26950;50.960;7.138;2023-05-07T03:51:30;3.57;;;1.60;;
41217;SDS011;26950;50.960;7.138;2023-05-07T03:53:56;3.17;;;1.83;;
41217;SDS011;26950;50.960;7.138;2023-05-07T03:56:23;2.40;;;1.70;;
41217;SDS011;26950;50.960;7.138;2023-05-07T03:58:52;3.20;;;1.80;;
41217;SDS011;26950;50.960;7.138;2023-05-07T04:01:19;3.77;;;1.90;;
41217;SDS011;26950;50.960;7.138;2023-05-07T04:03:45;3.30;;;1.60;;
41217;SDS011;26950;50.960;7.138;2023-05-07T04:06:12;2.10;;;1.60;;
41217;SDS011;26950;50.960;7.138;2023-05-07T04:08:38;4.00;;;1.87;;
41217;SDS011;26950;50.960;7.138;2023-05-07T04:11:05;6.40;;;1.80;;
41217;SDS011;26950;50.960;7.138;2023-05-07T04:13:31;4.83;;;1.53;;
41217;SDS011;26950;50.960;7.138;2023-05-07T04:16:00;3.47;;;1.60;;
41217;SDS011;26950;50.960;7.138;2023-05-07T04:18:27;4.53;;;1.77;;
41217;SDS011;26950;50.960;7.138;2023-05-07T04:20:54;2.77;;;1.63;;
41217;SDS011;26950;50.960;7.138;2023-05-07T04:23:20;2.70;;;2.03;;
41217;SDS011;26950;50.960;7.138;2023-05-07T04:25:47;2.77;;;1.80;;
41217;SDS011;26950;50.960;7.138;2023-05-07T04:28:13;2.93;;;1.70;;
41217;SDS011;26950;50.960;7.138;2023-05-07T04:30:40;2.33;;;1.80;;
41217;SDS011;26950;50.960;7.138;2023-05-07T04:33:08;5.23;;;1.90;;
41217;SDS011;26950;50.960;7.138;2023-05-07T04:35:34;6.57;;;2.00;;
41217;SDS011;26950;50.960;7.138;2023-05-07T04:38:01;8.13;;;2.00;;
41217;SDS011;26950;50.960;7.138;2023-05-07T04:40:28;4.17;;;1.90;;
41217;SDS011;26950;50.960;7.138;2023-05-07T04:42:55;6.83;;;2.00;;
41217;SDS011;26950;50.960;7.138;2023-05-07T04:45:21;2.37;;;1.80;;
41217;SDS011;26950;50.960;7.138;2023-05-07T04:47:47;5.03;;;1.80;;
41217;SDS011;26950;50.960;7.138;2023-05-07T04:50:16;3.37;;;1.57;;
41217;SDS011;26950;50.960;7.138;2023-05-07T04:52:44;2.00;;;1.60;;
41217;SDS011;26950;50.960;7.138;2023-05-07T04:55:11;5.30;;;1.57;;
41217;SDS011;26950;50.960;7.138;2023-05-07T04:57:38;1.80;;;1.60;;
41217;SDS011;26950;50.960;7.138;2023-05-07T05:00:06;4.43;;;2.00;;
41217;SDS011;26950;50.960;7.138;2023-05-07T05:02:34;6.00;;;2.67;;
41217;SDS011;26950;50.960;7.138;2023-05-07T05:05:00;4.57;;;1.60;;
41217;SDS011;26950;50.960;7.138;2023-05-07T05:07:28;4.43;;;2.00;;
41217;SDS011;26950;50.960;7.138;2023-05-07T05:09:55;3.13;;;1.60;;
41217;SDS011;26950;50.960;7.138;2023-05-07T05:12:22;4.17;;;1.83;;
41217;SDS011;26950;50.960;7.138;2023-05-07T05:14:49;5.40;;;1.70;;
41217;SDS011;26950;50.960;7.138;2023-05-07T05:17:15;4.67;;;2.10;;
41217;SDS011;26950;50.960;7.138;2023-05-07T05:19:41;7.30;;;1.80;;
41217;SDS011;26950;50.960;7.138;2023-05-07T05:22:08;2.30;;;1.87;;
41217;SDS011;26950;50.960;7.138;2023-05-07T05:24:35;3.50;;;1.40;;
41217;SDS011;26950;50.960;7.138;2023-05-07T05:27:02;2.80;;;1.80;;
41217;SDS011;26950;50.960;7.138;2023-05-07T05:29:28;6.77;;;1.87;;
41217;SDS011;26950;50.960;7.138;2023-05-07T05:31:56;4.70;;;1.80;;
41217;SDS011;26950;50.960;7.138;2023-05-07T05:34:22;8.33;;;1.70;;
41217;SDS011;26950;50.960;7.138;2023-05-07T05:36:49;4.93;;;1.80;;
41217;SDS011;26950;50.960;7.138;2023-05-07T05:39:15;6.32;;;1.83;;
41217;SDS011;26950;50.960;7.138;2023-05-07T05:41:43;3.13;;;1.87;;
41217;SDS011;26950;50.960;7.138;2023-05-07T05:44:09;5.03;;;1.70;;
41217;SDS011;26950;50.960;7.138;2023-05-07T05:46:36;5.40;;;1.80;;
41217;SDS011;26950;50.960;7.138;2023-05-07T05:49:02;5.70;;;1.83;;
41217;SDS011;26950;50.960;7.138;2023-05-07T05:51:29;2.40;;;1.60;;
41217;SDS011;26950;50.960;7.138;2023-05-07T05:53:55;7.28;;;1.70;;
41217;SDS011;26950;50.960;7.138;2023-05-07T05:56:22;1.67;;;1.58;;
41217;SDS011;26950;50.960;7.138;2023-05-07T05:58:49;5.15;;;1.70;;
41217;SDS011;26950;50.960;7.138;2023-05-07T06:01:16;3.67;;;1.60;;
41217;SDS011;26950;50.960;7.138;2023-05-07T06:03:43;5.60;;;1.80;;
41217;SDS011;26950;50.960;7.138;2023-05-07T06:06:09;7.67;;;1.90;;
41217;SDS011;26950;50.960;7.138;2023-05-07T06:08:36;6.07;;;1.65;;
41217;SDS011;26950;50.960;7.138;2023-05-07T06:11:03;5.00;;;1.60;;
41217;SDS011;26950;50.960;7.138;2023-05-07T06:13:29;5.63;;;1.85;;
41217;SDS011;26950;50.960;7.138;2023-05-07T06:15:57;2.60;;;1.98;;
41217;SDS011;26950;50.960;7.138;2023-05-07T06:18:23;4.37;;;1.53;;
41217;SDS011;26950;50.960;7.138;2023-05-07T06:20:51;7.65;;;1.92;;
41217;SDS011;26950;50.960;7.138;2023-05-07T06:23:17;6.90;;;1.90;;
41217;SDS011;26950;50.960;7.138;2023-05-07T06:25:47;3.33;;;1.52;;
41217;SDS011;26950;50.960;7.138;2023-05-07T06:28:14;6.47;;;2.00;;
41217;SDS011;26950;50.960;7.138;2023-05-07T06:30:41;3.58;;;1.55;;
41217;SDS011;26950;50.960;7.138;2023-05-07T06:33:09;3.42;;;2.00;;
41217;SDS011;26950;50.960;7.138;2023-05-07T06:35:35;5.30;;;1.80;;
41217;SDS011;26950;50.960;7.138;2023-05-07T06:38:02;5.80;;;1.92;;
41217;SDS011;26950;50.960;7.138;2023-05-07T06:40:28;5.55;;;1.60;;
41217;SDS011;26950;50.960;7.138;2023-05-07T06:42:54;3.80;;;1.77;;
41217;SDS011;26950;50.960;7.138;2023-05-07T06:45:21;2.15;;;1.65;;
41217;SDS011;26950;50.960;7.138;2023-05-07T06:47:47;3.95;;;1.73;;
41217;SDS011;26950;50.960;7.138;2023-05-07T06:50:15;4.95;;;1.67;;
41217;SDS011;26950;50.960;7.138;2023-05-07T06:52:42;2.95;;;1.70;;
41217;SDS011;26950;50.960;7.138;2023-05-07T06:55:08;1.90;;;1.40;;
41217;SDS011;26950;50.960;7.138;2023-05-07T06:57:36;2.45;;;1.33;;
41217;SDS011;26950;50.960;7.138;2023-05-07T07:00:02;2.83;;;1.48;;
41217;SDS011;26950;50.960;7.138;2023-05-07T07:02:31;4.95;;;1.80;;
41217;SDS011;26950;50.960;7.138;2023-05-07T07:04:58;2.58;;;1.50;;
41217;SDS011;26950;50.960;7.138;2023-05-07T07:07:26;4.13;;;1.55;;
41217;SDS011;26950;50.960;7.138;2023-05-07T07:09:52;3.15;;;1.50;;
41217;SDS011;26950;50.960;7.138;2023-05-07T07:12:19;3.65;;;1.58;;
41217;SDS011;26950;50.960;7.138;2023-05-07T07:14:45;3.80;;;1.50;;
41217;SDS011;26950;50.960;7.138;2023-05-07T07:17:12;2.90;;;1.67;;
41217;SDS011;26950;50.960;7.138;2023-05-07T07:19:38;2.15;;;1.40;;
41217;SDS011;26950;50.960;7.138;2023-05-07T07:22:05;5.18;;;1.30;;
41217;SDS011;26950;50.960;7.138;2023-05-07T07:24:32;5.57;;;1.60;;
41217;SDS011;26950;50.960;7.138;2023-05-07T07:26:59;1.92;;;1.60;;
41217;SDS011;26950;50.960;7.138;2023-05-07T07:29:25;2.25;;;1.42;;
41217;SDS011;26950;50.960;7.138;2023-05-07T07:31:52;2.63;;;1.48;;
41217;SDS011;26950;50.960;7.138;2023-05-07T07:34:19;4.03;;;1.33;;
41217;SDS011;26950;50.960;7.138;2023-05-07T07:36:45;3.92;;;1.58;;
41217;SDS011;26950;50.960;7.138;2023-05-07T07:39:11;3.80;;;1.90;;
41217;SDS011;26950;50.960;7.138;2023-05-07T07:41:39;2.92;;;1.60;;
41217;SDS011;26950;50.960;7.138;2023-05-07T07:44:06;2.38;;;1.30;;
41217;SDS011;26950;50.960;7.138;2023-05-07T07:46:33;5.57;;;1.67;;
41217;SDS011;26950;50.960;7.138;2023-05-07T07:49:00;4.28;;;1.40;;
41217;SDS011;26950;50.960;7.138;2023-05-07T07:51:26;2.80;;;1.33;;
41217;SDS011;26950;50.960;7.138;2023-05-07T07:53:53;4.28;;;1.50;;
41217;SDS011;26950;50.960;7.138;2023-05-07T07:56:19;2.83;;;1.27;;
41217;SDS011;26950;50.960;7.138;2023-05-07T07:58:47;2.35;;;1.40;;
41217;SDS011;26950;50.960;7.138;2023-05-07T08:01:14;3.47;;;1.23;;
41217;SDS011;26950;50.960;7.138;2023-05-07T08:03:41;1.58;;;1.27;;
41217;SDS011;26950;50.960;7.138;2023-05-07T08:06:08;3.08;;;1.17;;
41217;SDS011;26950;50.960;7.138;2023-05-07T08:08:34;3.58;;;1.50;;
41217;SDS011;26950;50.960;7.138;2023-05-07T08:11:01;2.60;;;1.50;;
41217;SDS011;26950;50.960;7.138;2023-05-07T08:13:27;2.55;;;1.30;;
41217;SDS011;26950;50.960;7.138;2023-05-07T08:15:55;4.30;;;1.58;;
41217;SDS011;26950;50.960;7.138;2023-05-07T08:18:22;2.33;;;1.35;;
41217;SDS011;26950;50.960;7.138;2023-05-07T08:20:49;3.28;;;1.30;;
41217;SDS011;26950;50.960;7.138;2023-05-07T08:23:16;3.30;;;1.52;;
41217;SDS011;26950;50.960;7.138;2023-05-07T08:25:42;3.28;;;1.48;;
41217;SDS011;26950;50.960;7.138;2023-05-07T08:28:09;2.20;;;1.20;;
41217;SDS011;26950;50.960;7.138;2023-05-07T08:30:35;2.13;;;1.35;;
41217;SDS011;26950;50.960;7.138;2023-05-07T08:33:03;4.28;;;1.50;;
41217;SDS011;26950;50.960;7.138;2023-05-07T08:35:30;3.97;;;1.30;;
41217;SDS011;26950;50.960;7.138;2023-05-07T08:37:56;1.80;;;1.40;;
41217;SDS011;26950;50.960;7.138;2023-05-07T08:40:24;1.42;;;1.30;;
41217;SDS011;26950;50.960;7.138;2023-05-07T08:42:52;3.33;;;1.50;;
41217;SDS011;26950;50.960;7.138;2023-05-07T08:45:19;4.30;;;1.52;;
41217;SDS011;26950;50.960;7.138;2023-05-07T08:47:47;2.30;;;1.35;;
41217;SDS011;26950;50.960;7.138;2023-05-07T08:50:19;1.90;;;1.40;;
41217;SDS011;26950;50.960;7.138;2023-05-07T08:52:46;4.00;;;1.40;;
41217;SDS011;26950;50.960;7.138;2023-05-07T08:55:13;3.22;;;1.40;;
41217;SDS011;26950;50.960;7.138;2023-05-07T08:57:40;4.57;;;1.55;;
41217;SDS011;26950;50.960;7.138;2023-05-07T09:00:07;3.58;;;1.10;;
41217;SDS011;26950;50.960;7.138;2023-05-07T09:02:35;2.92;;;1.20;;
41217;SDS011;26950;50.960;7.138;2023-05-07T09:05:01;2.95;;;1.48;;
41217;SDS011;26950;50.960;7.138;2023-05-07T09:07:32;4.68;;;1.52;;
41217;SDS011;26950;50.960;7.138;2023-05-07T09:10:00;3.67;;;1.30;;
41217;SDS011;26950;50.960;7.138;2023-05-07T09:12:28;1.30;;;1.20;;
41217;SDS011;26950;50.960;7.138;2023-05-07T09:14:54;2.40;;;1.10;;
41217;SDS011;26950;50.960;7.138;2023-05-07T09:17:21;1.65;;;1.38;;
41217;SDS011;26950;50.960;7.138;2023-05-07T09:19:47;3.38;;;1.25;;
41217;SDS011;26950;50.960;7.138;2023-05-07T09:22:14;5.00;;;1.55;;
41217;SDS011;26950;50.960;7.138;2023-05-07T09:24:42;3.63;;;1.50;;
41217;SDS011;26950;50.960;7.138;2023-05-07T09:27:13;3.15;;;1.50;;
41217;SDS011;26950;50.960;7.138;2023-05-07T09:29:40;3.65;;;1.30;;
41217;SDS011;26950;50.960;7.138;2023-05-07T09:32:07;4.22;;;1.40;;
41217;SDS011;26950;50.960;7.138;2023-05-07T09:34:34;1.55;;;1.27;;
41217;SDS011;26950;50.960;7.138;2023-05-07T09:37:01;3.70;;;1.27;;
41217;SDS011;26950;50.960;7.138;2023-05-07T09:39:41;3.90;;;1.20;;
41217;SDS011;26950;50.960;7.138;2023-05-07T09:42:09;6.03;;;1.65;;
41217;SDS011;26950;50.960;7.138;2023-05-07T09:44:36;3.97;;;1.30;;
41217;SDS011;26950;50.960;7.138;2023-05-07T09:47:04;3.78;;;1.23;;
41217;SDS011;26950;50.960;7.138;2023-05-07T09:49:33;1.42;;;1.23;;
41217;SDS011;26950;50.960;7.138;2023-05-07T09:52:01;3.60;;;1.27;;
41217;SDS011;26950;50.960;7.138;2023-05-07T09:54:28;3.38;;;1.50;;
41217;SDS011;26950;50.960;7.138;2023-05-07T09:56:57;4.40;;;1.20;;
41217;SDS011;26950;50.960;7.138;2023-05-07T09:59:24;2.75;;;1.38;;
41217;SDS011;26950;50.960;7.138;2023-05-07T10:01:52;2.35;;;1.50;;
41217;SDS011;26950;50.960;7.138;2023-05-07T10:04:22;1.33;;;1.13;;
41217;SDS011;26950;50.960;7.138;2023-05-07T10:06:50;1.55;;;1.20;;
41217;SDS011;26950;50.960;7.138;2023-05-07T10:09:18;4.93;;;1.40;;
41217;SDS011;26950;50.960;7.138;2023-05-07T10:11:45;1.77;;;1.30;;
41217;SDS011;26950;50.960;7.138;2023-05-07T10:14:13;3.88;;;1.38;;
41217;SDS011;26950;50.960;7.138;2023-05-07T10:16:40;3.97;;;1.20;;
41217;SDS011;26950;50.960;7.138;2023-05-07T10:19:07;3.92;;;1.23;;
41217;SDS011;26950;50.960;7.138;2023-05-07T10:21:36;1.45;;;1.20;;
41217;SDS011;26950;50.960;7.138;2023-05-07T10:24:04;2.20;;;1.40;;
41217;SDS011;26950;50.960;7.138;2023-05-07T10:26:33;3.05;;;1.10;;
41217;SDS011;26950;50.960;7.138;2023-05-07T10:29:03;2.30;;;1.20;;
41217;SDS011;26950;50.960;7.138;2023-05-07T10:31:39;2.25;;;1.40;;
41217;SDS011;26950;50.960;7.138;2023-05-07T10:34:17;4.40;;;1.48;;
41217;SDS011;26950;50.960;7.138;2023-05-07T10:36:47;1.48;;;1.17;;
41217;SDS011;26950;50.960;7.138;2023-05-07T10:39:15;4.32;;;1.20;;
41217;SDS011;26950;50.960;7.138;2023-05-07T10:41:42;1.83;;;1.33;;
41217;SDS011;26950;50.960;7.138;2023-05-07T10:44:08;2.45;;;1.30;;
41217;SDS011;26950;50.960;7.138;2023-05-07T10:46:35;2.03;;;1.20;;
41217;SDS011;26950;50.960;7.138;2023-05-07T10:49:12;2.28;;;1.20;;
41217;SDS011;26950;50.960;7.138;2023-05-07T10:51:39;2.20;;;1.10;;
41217;SDS011;26950;50.960;7.138;2023-05-07T10:54:18;1.83;;;1.20;;
41217;SDS011;26950;50.960;7.138;2023-05-07T10:56:46;1.30;;;1.20;;
41217;SDS011;26950;50.960;7.138;2023-05-07T11:02:09;3.10;;;1.40;;
41217;SDS011;26950;50.960;7.138;2023-05-07T11:04:40;1.70;;;0.95;;
41217;SDS011;26950;50.960;7.138;2023-05-07T11:07:26;3.75;;;1.08;;
41217;SDS011;26950;50.960;7.138;2023-05-07T11:09:54;1.98;;;1.38;;
41217;SDS011;26950;50.960;7.138;2023-05-07T11:15:12;3.70;;;1.35;;
41217;SDS011;26950;50.960;7.138;2023-05-07T11:17:51;1.88;;;1.30;;
41217;SDS011;26950;50.960;7.138;2023-05-07T11:20:20;2.38;;;1.15;;
41217;SDS011;26950;50.960;7.138;2023-05-07T11:23:08;2.53;;;1.25;;
41217;SDS011;26950;50.960;7.138;2023-05-07T11:25:58;2.00;;;1.33;;
41217;SDS011;26950;50.960;7.138;2023-05-07T11:28:25;3.60;;;1.30;;
41217;SDS011;26950;50.960;7.138;2023-05-07T11:30:53;5.20;;;1.40;;
41217;SDS011;26950;50.960;7.138;2023-05-07T11:33:20;1.98;;;1.10;;
41217;SDS011;26950;50.960;7.138;2023-05-07T11:35:54;3.45;;;1.27;;
41217;SDS011;26950;50.960;7.138;2023-05-07T11:38:21;2.88;;;1.63;;
41217;SDS011;26950;50.960;7.138;2023-05-07T11:40:49;3.10;;;1.30;;
41217;SDS011;26950;50.960;7.138;2023-05-07T11:43:16;2.35;;;1.20;;
41217;SDS011;26950;50.960;7.138;2023-05-07T11:45:43;2.60;;;1.30;;
41217;SDS011;26950;50.960;7.138;2023-05-07T11:48:11;1.50;;;1.40;;
41217;SDS011;26950;50.960;7.138;2023-05-07T11:50:48;2.95;;;1.40;;
41217;SDS011;26950;50.960;7.138;2023-05-07T11:53:18;1.95;;;1.30;;
41217;SDS011;26950;50.960;7.138;2023-05-07T11:55:44;3.33;;;1.30;;
41217;SDS011;26950;50.960;7.138;2023-05-07T11:58:12;3.35;;;1.23;;
41217;SDS011;26950;50.960;7.138;2023-05-07T12:00:39;1.73;;;1.25;;
41217;SDS011;26950;50.960;7.138;2023-05-07T12:03:14;2.63;;;1.25;;
41217;SDS011;26950;50.960;7.138;2023-05-07T12:05:41;3.45;;;1.30;;
41217;SDS011;26950;50.960;7.138;2023-05-07T12:08:08;3.08;;;1.40;;
41217;SDS011;26950;50.960;7.138;2023-05-07T12:10:36;2.47;;;1.60;;
41217;SDS011;26950;50.960;7.138;2023-05-07T12:13:13;3.05;;;1.50;;
41217;SDS011;26950;50.960;7.138;2023-05-07T12:15:40;1.80;;;1.30;;
41217;SDS011;26950;50.960;7.138;2023-05-07T12:18:07;2.63;;;1.33;;
41217;SDS011;26950;50.960;7.138;2023-05-07T12:20:33;1.65;;;1.15;;
41217;SDS011;26950;50.960;7.138;2023-05-07T12:23:01;1.92;;;1.48;;
41217;SDS011;26950;50.960;7.138;2023-05-07T12:25:29;3.67;;;1.33;;
41217;SDS011;26950;50.960;7.138;2023-05-07T12:27:57;2.15;;;0.82;;
41217;SDS011;26950;50.960;7.138;2023-05-07T12:30:26;2.38;;;1.08;;
41217;SDS011;26950;50.960;7.138;2023-05-07T12:32:53;2.17;;;1.30;;
41217;SDS011;26950;50.960;7.138;2023-05-07T12:35:26;2.05;;;1.13;;
41217;SDS011;26950;50.960;7.138;2023-05-07T12:37:56;1.90;;;1.20;;
41217;SDS011;26950;50.960;7.138;2023-05-07T12:40:24;1.77;;;1.17;;
41217;SDS011;26950;50.960;7.138;2023-05-07T12:43:02;2.35;;;1.42;;
41217;SDS011;26950;50.960;7.138;2023-05-07T12:45:28;4.55;;;1.20;;
41217;SDS011;26950;50.960;7.138;2023-05-07T12:47:55;2.05;;;1.48;;
41217;SDS011;26950;50.960;7.138;2023-05-07T12:50:22;2.67;;;1.55;;
41217;SDS011;26950;50.960;7.138;2023-05-07T12:52:49;2.75;;;1.30;;
41217;SDS011;26950;50.960;7.138;2023-05-07T12:55:15;1.92;;;1.17;;
41217;SDS011;26950;50.960;7.138;2023-05-07T12:57:43;1.50;;;1.10;;
41217;SDS011;26950;50.960;7.138;2023-05-07T13:00:15;1.88;;;1.10;;
41217;SDS011;26950;50.960;7.138;2023-05-07T13:02:43;2.40;;;1.25;;
41217;SDS011;26950;50.960;7.138;2023-05-07T13:05:11;2.15;;;1.50;;
41217;SDS011;26950;50.960;7.138;2023-05-07T13:07:37;1.85;;;1.27;;
41217;SDS011;26950;50.960;7.138;2023-05-07T13:10:06;3.80;;;1.20;;
41217;SDS011;26950;50.960;7.138;2023-05-07T13:12:33;5.65;;;1.60;;
41217;SDS011;26950;50.960;7.138;2023-05-07T13:15:00;7.10;;;2.00;;
41217;SDS011;26950;50.960;7.138;2023-05-07T13:17:28;12.77;;;1.75;;
41217;SDS011;26950;50.960;7.138;2023-05-07T13:19:56;4.15;;;1.63;;
41217;SDS011;26950;50.960;7.138;2023-05-07T13:22:22;10.05;;;1.50;;
41217;SDS011;26950;50.960;7.138;2023-05-07T13:24:49;3.03;;;1.70;;
41217;SDS011;26950;50.960;7.138;2023-05-07T13:27:15;8.82;;;1.67;;
41217;SDS011;26950;50.960;7.138;2023-05-07T13:29:44;3.42;;;1.50;;
41217;SDS011;26950;50.960;7.138;2023-05-07T13:32:10;3.20;;;1.55;;
41217;SDS011;26950;50.960;7.138;2023-05-07T13:34:38;1.70;;;1.58;;
41217;SDS011;26950;50.960;7.138;2023-05-07T13:37:04;2.28;;;1.40;;
41217;SDS011;26950;50.960;7.138;2023-05-07T13:39:32;2.50;;;1.60;;
41217;SDS011;26950;50.960;7.138;2023-05-07T13:41:59;2.88;;;1.50;;
41217;SDS011;26950;50.960;7.138;2023-05-07T13:44:25;2.70;;;1.63;;
41217;SDS011;26950;50.960;7.138;2023-05-07T13:46:52;2.72;;;1.40;;
41217;SDS011;26950;50.960;7.138;2023-05-07T13:49:18;2.47;;;1.40;;
41217;SDS011;26950;50.960;7.138;2023-05-07T13:51:46;4.55;;;1.60;;
41217;SDS011;26950;50.960;7.138;2023-05-07T13:54:13;2.78;;;1.40;;
41217;SDS011;26950;50.960;7.138;2023-05-07T13:56:40;2.30;;;1.60;;
41217;SDS011;26950;50.960;7.138;2023-05-07T13:59:07;2.58;;;1.60;;
41217;SDS011;26950;50.960;7.138;2023-05-07T14:01:34;2.35;;;1.50;;
41217;SDS011;26950;50.960;7.138;2023-05-07T14:04:00;3.22;;;1.50;;
41217;SDS011;26950;50.960;7.138;2023-05-07T14:06:27;3.25;;;1.55;;
41217;SDS011;26950;50.960;7.138;2023-05-07T14:08:54;5.20;;;1.70;;
41217;SDS011;26950;50.960;7.138;2023-05-07T14:11:23;2.08;;;1.58;;
41217;SDS011;26950;50.960;7.138;2023-05-07T14:13:49;2.17;;;1.70;;
41217;SDS011;26950;50.960;7.138;2023-05-07T14:16:16;4.22;;;1.70;;
41217;SDS011;26950;50.960;7.138;2023-05-07T14:18:42;2.35;;;1.63;;
41217;SDS011;26950;50.960;7.138;2023-05-07T14:21:08;3.95;;;1.83;;
41217;SDS011;26950;50.960;7.138;2023-05-07T14:23:35;3.75;;;2.00;;
41217;SDS011;26950;50.960;7.138;2023-05-07T14:26:03;7.50;;;2.00;;
41217;SDS011;26950;50.960;7.138;2023-05-07T14:28:30;3.83;;;2.08;;
41217;SDS011;26950;50.960;7.138;2023-05-07T14:30:56;6.70;;;2.50;;
41217;SDS011;26950;50.960;7.138;2023-05-07T14:33:23;8.68;;;3.00;;
41217;SDS011;26950;50.960;7.138;2023-05-07T14:35:49;9.27;;;3.20;;
41217;SDS011;26950;50.960;7.138;2023-05-07T14:38:16;12.10;;;3.72;;
41217;SDS011;26950;50.960;7.138;2023-05-07T14:40:42;14.73;;;4.05;;
41217;SDS011;26950;50.960;7.138;2023-05-07T14:43:10;12.90;;;3.63;;
41217;SDS011;26950;50.960;7.138;2023-05-07T14:45:37;13.40;;;3.60;;
41217;SDS011;26950;50.960;7.138;2023-05-07T14:48:03;9.13;;;2.65;;
41217;SDS011;26950;50.960;7.138;2023-05-07T14:50:30;7.55;;;2.63;;
41217;SDS011;26950;50.960;7.138;2023-05-07T14:52:57;9.90;;;2.95;;
41217;SDS011;26950;50.960;7.138;2023-05-07T14:55:23;8.88;;;2.30;;